Time;durP1;ratioP1;P1;durP2;ratioP2;P2;SDS_P1;SDS_P2;PMS_P1;PMS_P2;Temp;Humidity;BMP_temperature;BMP_pressure;BME280_temperature;BME280_humidity;BME280_pressure;Samples;Min_cycle;Max_cycle;Signal;HPM_P1;HPM_P2
2022/08/06 00:02:20;;;;;;;5.57;1.65;;;;;;;17.63;46.21;102429.72;5091425;28;20039;-74
2022/08/06 00:04:53;;;;;;;2.53;1.95;;;;;;;17.56;46.32;102431.19;5092187;28;20118;-74
2022/08/06 00:07:20;;;;;;;2.78;1.85;;;;;;;17.52;46.38;102434.25;5090705;28;20055;-74
2022/08/06 00:09:52;;;;;;;5.20;1.80;;;;;;;17.49;46.45;102435.34;5090588;28;20047;-74
2022/08/06 00:12:27;;;;;;;3.15;1.90;;;;;;;17.46;46.57;102441.00;5091706;28;20036;-73
2022/08/06 00:15:05;;;;;;;7.63;2.45;;;;;;;17.41;46.92;102438.63;5091949;28;20063;-73
2022/08/06 00:17:40;;;;;;;4.75;2.50;;;;;;;17.36;46.74;102443.53;5091403;28;20070;-72
2022/08/06 00:20:08;;;;;;;3.53;2.40;;;;;;;17.34;47.00;102441.91;5091704;28;20504;-72
2022/08/06 00:22:36;;;;;;;4.18;2.92;;;;;;;17.31;47.16;102445.72;5091567;28;20081;-73
2022/08/06 00:25:07;;;;;;;8.45;2.55;;;;;;;17.32;47.43;102449.31;5091931;28;20040;-73
2022/08/06 00:27:34;;;;;;;5.65;3.00;;;;;;;17.33;47.22;102441.06;5090703;28;20408;-73
2022/08/06 00:30:09;;;;;;;5.72;2.53;;;;;;;17.33;47.34;102453.75;5091894;28;20044;-71
2022/08/06 00:32:47;;;;;;;4.45;2.42;;;;;;;17.30;47.29;102448.56;5091773;28;20048;-72
2022/08/06 00:35:30;;;;;;;6.57;3.03;;;;;;;17.28;47.22;102454.09;5090344;28;20048;-73
2022/08/06 00:37:56;;;;;;;5.80;2.85;;;;;;;17.30;47.51;102454.00;5090559;28;20048;-72
2022/08/06 00:40:29;;;;;;;7.15;3.45;;;;;;;17.31;47.83;102453.88;5091920;28;20040;-72
2022/08/06 00:42:59;;;;;;;5.20;2.95;;;;;;;17.34;47.71;102453.66;5073564;28;20551;-72
2022/08/06 00:45:32;;;;;;;5.63;3.20;;;;;;;17.40;47.97;102455.91;5091773;28;20085;-73
2022/08/06 00:48:05;;;;;;;5.88;4.10;;;;;;;17.43;47.82;102455.69;5092028;28;20044;-73
2022/08/06 00:50:33;;;;;;;5.78;3.40;;;;;;;17.47;47.59;102457.19;5090550;28;20093;-72
2022/08/06 00:53:03;;;;;;;7.82;3.63;;;;;;;17.51;47.72;102456.97;5091639;28;20048;-73
2022/08/06 00:55:30;;;;;;;6.95;3.53;;;;;;;17.53;48.06;102464.00;5091997;27;20143;-73
2022/08/06 00:58:05;;;;;;;6.13;3.35;;;;;;;17.57;48.07;102464.66;5091920;28;20506;-73
2022/08/06 01:00:33;;;;;;;6.82;3.70;;;;;;;17.58;48.09;102461.81;5091943;28;20101;-72
2022/08/06 01:03:16;;;;;;;8.32;3.58;;;;;;;17.59;47.86;102470.84;5091589;28;20044;-72
2022/08/06 01:06:03;;;;;;;4.82;3.38;;;;;;;17.59;47.82;102474.41;5092074;28;20051;-72
2022/08/06 01:08:50;;;;;;;6.28;3.47;;;;;;;17.57;47.91;102467.38;5091075;28;20040;-72
2022/08/06 01:11:17;;;;;;;5.25;2.80;;;;;;;17.55;48.05;102474.75;5090260;28;20044;-72
2022/08/06 01:13:47;;;;;;;6.18;3.20;;;;;;;17.53;48.16;102484.88;5091983;28;20066;-73
2022/08/06 01:16:39;;;;;;;5.13;3.50;;;;;;;17.51;47.97;102481.41;5090618;28;20437;-73
2022/08/06 01:19:26;;;;;;;4.95;3.15;;;;;;;17.51;48.05;102484.13;5091917;28;20044;-72
2022/08/06 01:22:26;;;;;;;5.72;3.10;;;;;;;17.50;47.98;102488.69;5091823;28;20134;-72
2022/08/06 01:25:05;;;;;;;4.88;3.40;;;;;;;17.48;48.08;102487.94;5091360;28;20114;-72
2022/08/06 01:27:53;;;;;;;6.32;3.50;;;;;;;17.44;48.27;102490.00;5091957;28;20048;-73
2022/08/06 01:30:28;;;;;;;8.07;4.20;;;;;;;17.41;48.33;102492.09;5091891;28;20486;-73
2022/08/06 01:33:06;;;;;;;5.88;3.70;;;;;;;17.37;48.37;102496.00;5094826;28;20119;-73
2022/08/06 01:35:56;;;;;;;8.75;3.53;;;;;;;17.33;48.31;102495.38;5097357;28;20048;-73
2022/08/06 01:38:47;;;;;;;5.43;3.40;;;;;;;17.29;48.33;102496.56;5096788;28;20114;-72
2022/08/06 01:41:39;;;;;;;5.18;3.20;;;;;;;17.30;48.35;102497.44;5096621;28;20075;-73
2022/08/06 01:44:30;;;;;;;5.05;3.72;;;;;;;17.27;48.61;102493.09;5096577;28;20036;-72
2022/08/06 01:47:01;;;;;;;6.20;3.20;;;;;;;17.24;48.47;102498.75;5097311;28;20040;-72
2022/08/06 01:49:47;;;;;;;4.43;2.95;;;;;;;17.17;48.66;102493.88;5099934;27;20056;-72
2022/08/06 01:52:32;;;;;;;6.03;4.10;;;;;;;17.10;48.53;102497.03;5095580;28;20095;-72
2022/08/06 01:55:10;;;;;;;7.50;3.40;;;;;;;17.01;48.46;102494.09;5095637;28;20044;-73
2022/08/06 01:57:43;;;;;;;5.15;3.03;;;;;;;16.94;48.38;102507.25;5093782;28;20054;-72
2022/08/06 02:00:31;;;;;;;5.15;3.25;;;;;;;16.87;48.54;102510.50;5094488;28;20039;-72
2022/08/06 02:03:04;;;;;;;5.00;3.15;;;;;;;16.80;48.90;102508.22;5094795;28;20054;-73
2022/08/06 02:05:34;;;;;;;7.07;3.47;;;;;;;16.79;48.66;102502.91;5094853;28;20070;-72
2022/08/06 02:08:20;;;;;;;8.23;3.42;;;;;;;16.79;49.07;102506.50;5094972;28;20516;-73
2022/08/06 02:11:09;;;;;;;6.25;3.40;;;;;;;16.80;49.11;102504.66;5093021;28;20509;-73
2022/08/06 02:13:59;;;;;;;5.10;3.95;;;;;;;16.79;48.81;102503.78;5094539;28;20513;-72
2022/08/06 02:16:30;;;;;;;6.38;3.47;;;;;;;16.77;49.27;102505.72;5094358;28;20039;-72
2022/08/06 02:18:58;;;;;;;7.90;3.95;;;;;;;16.78;49.21;102499.31;5093180;28;20044;-72
2022/08/06 02:21:31;;;;;;;9.32;3.70;;;;;;;16.76;49.33;102503.13;5094009;28;20437;-72
2022/08/06 02:24:05;;;;;;;6.55;3.35;;;;;;;16.73;49.23;102506.94;5094425;28;20043;-73
2022/08/06 02:26:35;;;;;;;4.93;3.53;;;;;;;16.73;49.29;102508.78;5094064;28;20494;-72
2022/08/06 02:29:05;;;;;;;6.40;3.50;;;;;;;16.74;49.44;102505.09;5093962;28;20071;-73
2022/08/06 02:31:40;;;;;;;6.60;3.95;;;;;;;16.74;49.22;102500.53;5094065;28;20040;-73
2022/08/06 02:34:20;;;;;;;5.63;3.42;;;;;;;16.76;49.58;102501.28;5094450;28;20051;-73
2022/08/06 02:37:18;;;;;;;4.78;3.45;;;;;;;16.74;49.50;102505.94;5093834;28;20067;-72
2022/08/06 02:40:10;;;;;;;7.47;4.03;;;;;;;16.72;49.46;102504.31;5093611;28;20040;-72
2022/08/06 02:43:18;;;;;;;6.38;3.50;;;;;;;16.66;49.69;102510.19;5093581;28;20044;-72
2022/08/06 02:45:54;;;;;;;6.30;3.90;;;;;;;16.63;49.92;102507.66;5092546;28;20048;-71
2022/08/06 02:48:37;;;;;;;6.40;4.22;;;;;;;16.59;49.58;102512.41;5092585;28;20040;-72
2022/08/06 02:51:17;;;;;;;6.15;3.90;;;;;;;16.56;49.66;102514.47;5093375;28;20046;-73
2022/08/06 02:54:14;;;;;;;8.15;3.15;;;;;;;16.51;49.72;102520.22;5093828;28;20044;-72
2022/08/06 02:56:45;;;;;;;5.88;3.55;;;;;;;16.45;49.75;102516.09;5093733;28;20036;-71
2022/08/06 02:59:23;;;;;;;7.07;3.08;;;;;;;16.35;49.90;102523.13;5075158;28;20489;-72
2022/08/06 03:01:56;;;;;;;7.03;3.90;;;;;;;16.30;49.68;102516.25;5093316;28;20066;-71
2022/08/06 03:04:29;;;;;;;6.63;4.10;;;;;;;16.28;50.20;102521.78;5093466;28;20040;-73
2022/08/06 03:07:03;;;;;;;8.10;4.20;;;;;;;16.30;50.14;102517.13;5093295;27;20056;-72
2022/08/06 03:09:51;;;;;;;6.82;4.28;;;;;;;16.31;50.00;102518.84;5092037;28;20044;-73
2022/08/06 03:12:20;;;;;;;7.78;3.80;;;;;;;16.34;50.01;102517.78;5091951;28;20529;-73
2022/08/06 03:15:06;;;;;;;6.60;3.70;;;;;;;16.34;49.98;102524.06;5093312;28;20093;-73
2022/08/06 03:17:43;;;;;;;7.97;3.83;;;;;;;16.35;49.94;102520.41;5091790;28;20097;-73
2022/08/06 03:20:14;;;;;;;6.38;3.70;;;;;;;16.35;50.44;102519.53;5093125;28;20146;-73
2022/08/06 03:22:45;;;;;;;5.25;3.90;;;;;;;16.34;50.17;102521.38;5091128;28;20040;-73
2022/08/06 03:25:36;;;;;;;7.00;4.03;;;;;;;16.35;50.15;102516.81;5092707;27;20048;-72
2022/08/06 03:28:09;;;;;;;6.32;3.92;;;;;;;16.34;50.28;102529.50;5093223;28;20058;-71
2022/08/06 03:30:36;;;;;;;7.40;4.15;;;;;;;16.31;50.34;102521.56;5092912;28;20072;-71
2022/08/06 03:33:17;;;;;;;8.13;3.88;;;;;;;16.31;50.44;102521.56;5092886;28;20501;-71
2022/08/06 03:36:05;;;;;;;5.25;3.47;;;;;;;16.28;50.44;102523.63;5093250;28;20024;-71
2022/08/06 03:38:40;;;;;;;6.95;3.55;;;;;;;16.23;50.39;102526.66;5092800;28;20051;-72
2022/08/06 03:41:08;;;;;;;4.38;3.20;;;;;;;16.19;50.20;102522.41;5092731;28;20450;-72
2022/08/06 03:43:36;;;;;;;6.53;3.22;;;;;;;16.16;50.33;102528.03;5092689;28;20074;-72
2022/08/06 03:46:27;;;;;;;6.55;3.10;;;;;;;16.12;50.64;102532.81;5091523;28;20036;-72
2022/08/06 03:48:58;;;;;;;6.35;3.53;;;;;;;16.08;50.60;102538.53;5092491;28;20051;-72
2022/08/06 03:51:27;;;;;;;6.55;4.10;;;;;;;16.05;50.45;102530.63;5092754;28;20374;-73
2022/08/06 03:54:25;;;;;;;6.90;3.95;;;;;;;16.02;50.80;102528.09;5092182;28;20044;-73
2022/08/06 03:57:01;;;;;;;6.50;4.15;;;;;;;15.97;50.54;102536.56;5092397;27;20040;-73
2022/08/06 03:59:41;;;;;;;5.60;3.88;;;;;;;15.95;50.71;102541.19;5092544;28;20492;-73
2022/08/06 04:02:23;;;;;;;7.13;4.05;;;;;;;15.95;50.71;102551.16;5092968;28;20127;-73
2022/08/06 04:05:15;;;;;;;8.25;4.13;;;;;;;15.92;50.99;102548.66;5092567;28;20040;-73
2022/08/06 04:07:42;;;;;;;7.03;4.90;;;;;;;15.87;50.82;102557.09;5092845;28;20101;-73
2022/08/06 04:10:24;;;;;;;5.10;3.90;;;;;;;15.82;50.65;102559.25;5091256;28;20032;-72
2022/08/06 04:13:10;;;;;;;7.15;4.50;;;;;;;15.76;51.29;102560.53;5091316;28;20043;-71
2022/08/06 04:15:57;;;;;;;7.53;4.25;;;;;;;15.75;51.21;102571.47;5091780;28;20055;-71
2022/08/06 04:18:38;;;;;;;4.40;3.60;;;;;;;15.72;50.93;102561.69;5092364;28;20094;-72
2022/08/06 04:21:16;;;;;;;5.35;3.40;;;;;;;15.70;51.25;102577.19;5092423;28;20032;-71
2022/08/06 04:24:05;;;;;;;6.47;3.58;;;;;;;15.68;51.24;102567.41;5092956;28;20113;-71
2022/08/06 04:26:37;;;;;;;6.07;3.42;;;;;;;15.66;51.19;102570.22;5092791;28;20040;-72
2022/08/06 04:29:06;;;;;;;5.30;3.60;;;;;;;15.63;51.10;102575.84;5092566;28;20064;-72
2022/08/06 04:31:38;;;;;;;4.80;3.40;;;;;;;15.60;51.25;102577.84;5092950;28;20044;-72
2022/08/06 04:34:28;;;;;;;7.45;3.92;;;;;;;15.56;51.39;102571.72;5092124;28;20051;-72
2022/08/06 04:36:57;;;;;;;5.50;3.65;;;;;;;15.55;51.35;102570.84;5091705;28;20040;-74
2022/08/06 04:39:25;;;;;;;4.22;3.58;;;;;;;15.55;51.63;102575.41;5092038;28;20040;-71
2022/08/06 04:42:05;;;;;;;5.28;4.78;;;;;;;15.54;51.59;102579.06;5091839;28;20086;-73
2022/08/06 04:44:34;;;;;;;5.95;3.90;;;;;;;15.54;51.65;102579.06;5077946;28;20044;-72
2022/08/06 04:47:02;;;;;;;4.05;3.55;;;;;;;15.53;51.58;102582.75;5089256;28;20063;-71
2022/08/06 04:49:29;;;;;;;5.07;4.55;;;;;;;15.52;51.71;102581.88;5091976;28;20094;-71
2022/08/06 04:52:23;;;;;;;6.13;4.05;;;;;;;15.57;51.66;102581.59;5090647;28;20040;-71
2022/08/06 04:55:17;;;;;;;5.43;4.18;;;;;;;15.65;52.23;102592.00;5092048;28;20517;-71
2022/08/06 04:57:51;;;;;;;9.50;4.53;;;;;;;15.70;51.90;102598.84;5091791;28;20059;-73
2022/08/06 05:00:34;;;;;;;6.97;4.78;;;;;;;15.71;52.08;102597.88;5092129;28;20040;-73
2022/08/06 05:03:25;;;;;;;7.68;4.28;;;;;;;15.68;51.98;102598.06;5091702;28;20048;-72
2022/08/06 05:06:24;;;;;;;6.55;3.88;;;;;;;15.66;51.93;102604.56;5092853;28;20063;-72
2022/08/06 05:08:57;;;;;;;5.43;3.58;;;;;;;15.64;52.26;102599.25;5096091;28;20044;-72
2022/08/06 05:11:30;;;;;;;5.03;4.00;;;;;;;15.65;52.07;102598.28;5095664;28;20059;-70
2022/08/06 05:14:09;;;;;;;11.52;4.70;;;;;;;15.67;52.27;102603.59;5095771;28;20044;-71
2022/08/06 05:16:39;;;;;;;6.28;4.20;;;;;;;15.72;52.38;102606.88;5095650;28;20036;-71
2022/08/06 05:19:26;;;;;;;6.72;4.75;;;;;;;15.76;52.52;102608.41;5095658;27;20541;-71
2022/08/06 05:21:55;;;;;;;8.75;5.53;;;;;;;15.79;52.50;102616.34;5095270;28;20067;-72
2022/08/06 05:24:41;;;;;;;7.97;5.90;;;;;;;15.78;52.52;102611.88;5095866;28;20118;-72
2022/08/06 05:27:27;;;;;;;8.40;5.20;;;;;;;15.78;52.90;102615.47;5095593;28;20400;-71
2022/08/06 05:30:14;;;;;;;7.45;5.32;;;;;;;15.82;53.11;102616.13;5094532;28;20490;-72
2022/08/06 05:32:46;;;;;;;9.77;5.70;;;;;;;15.89;53.21;102617.47;5094937;28;20480;-71
2022/08/06 05:35:34;;;;;;;9.93;6.47;;;;;;;15.97;53.06;102628.69;5074800;28;20052;-71
2022/08/06 05:38:11;;;;;;;7.05;6.18;;;;;;;16.06;53.04;102635.34;5075286;28;20508;-70
2022/08/06 05:40:39;;;;;;;12.45;7.20;;;;;;;16.14;52.98;102627.56;5094016;28;20400;-71
2022/08/06 05:43:26;;;;;;;10.25;7.25;;;;;;;16.22;53.47;102633.34;5096009;28;20458;-71
2022/08/06 05:46:17;;;;;;;9.00;6.70;;;;;;;16.31;53.36;102638.16;5095171;28;20063;-70
2022/08/06 05:49:19;;;;;;;10.55;7.20;;;;;;;16.37;53.38;102637.78;5094349;27;20123;-70
2022/08/06 05:52:13;;;;;;;10.55;6.72;;;;;;;16.46;53.36;102641.72;5095108;28;20486;-71
2022/08/06 05:54:51;;;;;;;;;;;;;;;16.49;53.19;102636.94;5095773;28;20032;-71
2022/08/06 05:57:37;;;;;;;9.25;7.07;;;;;;;16.62;53.37;102639.69;5094781;27;19927;-71
2022/08/06 06:00:12;;;;;;;14.55;6.55;;;;;;;16.70;53.73;102640.06;5095106;28;20394;-72
2022/08/06 06:03:04;;;;;;;10.77;7.07;;;;;;;16.77;53.96;102632.38;5095178;28;20044;-71
2022/08/06 06:05:33;;;;;;;13.95;6.68;;;;;;;16.86;53.86;102633.59;5095472;28;20055;-71
2022/08/06 06:08:21;;;;;;;14.32;6.63;;;;;;;16.95;54.20;102641.09;5094846;28;20047;-70
2022/08/06 06:11:09;;;;;;;9.35;6.13;;;;;;;17.03;54.41;102636.00;5073807;28;20067;-70
2022/08/06 06:13:43;;;;;;;13.70;6.10;;;;;;;17.10;54.69;102634.63;5074839;28;20082;-70
2022/08/06 06:16:56;;;;;;;11.90;6.13;;;;;;;17.18;54.82;102637.66;5077684;28;20119;-72
2022/08/06 06:19:49;;;;;;;10.27;5.50;;;;;;;17.28;54.88;102644.19;5093767;28;20067;-74
2022/08/06 06:22:34;;;;;;;11.63;6.13;;;;;;;17.40;55.18;102637.88;5093988;28;20036;-71
2022/08/06 06:25:18;;;;;;;12.25;5.30;;;;;;;17.47;55.08;102628.31;5094763;28;20044;-72
2022/08/06 06:27:54;;;;;;;10.75;5.68;;;;;;;17.60;54.98;102641.00;5094031;28;20044;-73
2022/08/06 06:30:38;;;;;;;14.20;6.72;;;;;;;17.70;55.01;102642.97;5113947;28;20122;-73
2022/08/06 06:33:43;;;;;;;8.30;5.32;;;;;;;17.85;54.97;102651.03;5102810;27;20398;-73
2022/08/06 06:36:38;;;;;;;9.25;5.38;;;;;;;17.97;54.93;102644.69;5094591;28;20497;-73
2022/08/06 06:39:42;;;;;;;6.47;4.63;;;;;;;18.05;55.03;102640.41;5093141;28;20043;-73
2022/08/06 06:42:32;;;;;;;6.25;4.60;;;;;;;18.20;54.94;102651.13;5112867;28;20100;-71
2022/08/06 06:45:19;;;;;;;7.95;4.90;;;;;;;18.35;54.82;102648.13;5113667;28;20439;-72
2022/08/06 06:48:19;;;;;;;5.90;4.43;;;;;;;18.53;54.49;102654.03;5072695;28;20044;-73
2022/08/06 06:51:03;;;;;;;7.13;4.78;;;;;;;18.69;54.54;102653.78;5072801;28;20067;-72
2022/08/06 06:53:41;;;;;;;8.63;4.72;;;;;;;18.85;54.11;102657.06;5072588;28;20033;-73
2022/08/06 06:56:36;;;;;;;10.05;4.40;;;;;;;19.00;54.12;102666.75;5074713;28;20032;-72
2022/08/06 06:59:19;;;;;;;7.45;3.95;;;;;;;19.15;53.97;102656.53;5094065;28;20067;-83
2022/08/06 07:01:53;;;;;;;10.38;4.65;;;;;;;19.32;53.80;102657.91;5093020;28;20040;-83
2022/08/06 07:04:25;;;;;;;5.18;3.83;;;;;;;19.47;53.68;102661.28;5092226;28;20040;-82
2022/08/06 07:06:55;;;;;;;6.30;4.30;;;;;;;19.60;53.70;102657.50;5093072;28;20074;-81
2022/08/06 07:09:29;;;;;;;6.45;3.80;;;;;;;19.80;53.44;102657.75;5092592;28;20036;-80
2022/08/06 07:12:10;;;;;;;6.65;3.70;;;;;;;20.03;53.46;102664.91;5093483;28;20044;-81
2022/08/06 07:14:56;;;;;;;6.72;3.17;;;;;;;20.22;53.04;102662.41;5092720;28;20118;-79
2022/08/06 07:17:25;;;;;;;3.67;2.95;;;;;;;20.44;52.54;102664.25;5092473;28;20040;-80
2022/08/06 07:20:14;;;;;;;3.35;2.53;;;;;;;20.71;52.31;102671.09;5092882;28;20051;-80
2022/08/06 07:22:45;;;;;;;2.50;2.03;;;;;;;20.94;52.19;102676.34;5092426;28;20047;-80
2022/08/06 07:25:40;;;;;;;4.00;2.40;;;;;;;21.14;51.94;102679.19;5092601;28;20071;-80
2022/08/06 07:28:25;;;;;;;4.43;1.77;;;;;;;21.32;51.47;102682.22;5092601;28;20047;-80
2022/08/06 07:30:56;;;;;;;4.32;1.50;;;;;;;21.44;51.28;102682.00;5092233;28;20711;-79
2022/08/06 07:33:31;;;;;;;4.15;1.52;;;;;;;21.62;50.58;102673.22;5091998;28;20044;-79
2022/08/06 07:36:20;;;;;;;3.25;1.30;;;;;;;21.76;50.58;102672.84;5092091;28;20040;-80
2022/08/06 07:39:04;;;;;;;4.32;1.50;;;;;;;21.91;50.07;102678.81;5091849;28;20186;-80
2022/08/06 07:41:34;;;;;;;5.95;1.77;;;;;;;22.07;50.06;102680.03;5091723;28;20044;-81
2022/08/06 07:44:22;;;;;;;8.73;1.73;;;;;;;22.24;49.58;102675.75;5091851;28;20105;-75
2022/08/06 07:46:58;;;;;;;4.00;1.00;;;;;;;22.40;48.96;102676.09;5091739;28;20036;-87
2022/08/06 07:49:35;;;;;;;2.90;1.10;;;;;;;22.56;48.71;102686.50;5071609;28;20123;-83
2022/08/06 07:52:24;;;;;;;3.75;0.70;;;;;;;22.69;47.96;102684.34;5083759;28;20051;-82
2022/08/06 07:54:54;;;;;;;2.03;0.70;;;;;;;22.72;47.38;102686.78;5091614;28;20520;-84
2022/08/06 07:57:22;;;;;;;2.75;1.00;;;;;;;22.81;47.39;102680.47;5090411;28;20480;-86
2022/08/06 07:59:52;;;;;;;3.92;0.60;;;;;;;22.92;46.64;102687.69;5090242;28;20467;-84
2022/08/06 08:02:22;;;;;;;2.55;0.82;;;;;;;23.04;46.52;102688.44;5089949;28;20143;-83
2022/08/06 08:07:42;;;;;;;2.72;1.00;;;;;;;23.44;46.35;102685.47;5091725;28;20156;-84
2022/08/06 08:10:24;;;;;;;3.45;0.80;;;;;;;23.63;45.66;102690.06;5090191;28;20048;-82
2022/08/06 08:12:56;;;;;;;1.98;0.80;;;;;;;23.68;45.56;102698.69;5091663;28;20123;-83
2022/08/06 08:15:31;;;;;;;2.00;0.70;;;;;;;23.75;45.19;102694.34;5091491;28;20062;-82
2022/08/06 08:18:00;;;;;;;2.75;0.77;;;;;;;23.85;44.86;102694.34;5090289;28;20082;-84
2022/08/06 08:20:29;;;;;;;3.10;0.85;;;;;;;23.98;44.77;102694.84;5089675;28;20031;-83
2022/08/06 08:23:07;;;;;;;4.85;0.93;;;;;;;24.12;44.18;102694.34;5091422;28;20047;-82
2022/08/06 08:25:57;;;;;;;3.00;0.82;;;;;;;24.25;43.60;102691.22;5090896;28;20032;-83
2022/08/06 08:28:24;;;;;;;3.50;1.77;;;;;;;24.31;43.49;102687.91;5090057;28;20044;-83
2022/08/06 08:30:50;;;;;;;5.45;1.20;;;;;;;24.29;43.02;102693.53;5090863;28;20028;-82
2022/08/06 08:33:21;;;;;;;3.90;1.10;;;;;;;24.25;43.06;102683.00;5091323;28;20046;-85
2022/08/06 08:35:52;;;;;;;5.55;1.08;;;;;;;24.26;42.94;102695.69;5091081;27;20120;-84
2022/08/06 08:38:32;;;;;;;3.83;0.90;;;;;;;24.32;42.87;102692.38;5091247;28;20051;-82
2022/08/06 08:41:08;;;;;;;3.47;0.90;;;;;;;24.48;42.60;102688.94;5093529;28;20060;-82
2022/08/06 08:43:46;;;;;;;3.05;0.70;;;;;;;24.63;41.97;102691.03;5094104;28;20040;-81
2022/08/06 08:46:33;;;;;;;2.75;0.77;;;;;;;24.72;41.78;102691.97;5095194;28;20558;-83
2022/08/06 08:49:20;;;;;;;1.58;0.63;;;;;;;24.83;41.51;102688.97;5095325;28;20127;-82
2022/08/06 08:51:50;;;;;;;3.60;1.00;;;;;;;24.92;41.25;102692.66;5094957;28;20036;-84
2022/08/06 08:54:23;;;;;;;4.50;0.88;;;;;;;24.97;40.80;102696.69;5094082;28;20041;-82
2022/08/06 08:56:51;;;;;;;1.75;0.45;;;;;;;24.93;40.18;102697.13;5074688;28;20048;-86
2022/08/06 08:59:40;;;;;;;3.08;0.82;;;;;;;24.90;39.88;102687.31;5075406;28;20506;-85
2022/08/06 09:02:27;;;;;;;3.00;0.80;;;;;;;24.94;39.87;102696.97;5093562;28;20509;-84
2022/08/06 09:04:58;;;;;;;1.77;0.65;;;;;;;25.01;40.23;102697.25;5077064;28;20047;-84
2022/08/06 09:07:28;;;;;;;2.00;0.52;;;;;;;25.11;39.80;102697.16;5093765;28;20494;-85
2022/08/06 09:10:04;;;;;;;4.90;0.90;;;;;;;25.18;39.27;102695.47;5093339;28;20465;-85
2022/08/06 09:12:32;;;;;;;2.70;0.90;;;;;;;25.29;39.54;102701.63;5094470;28;20047;-84
2022/08/06 09:15:11;;;;;;;2.88;0.82;;;;;;;25.43;39.21;102702.06;5078408;28;20405;-81
2022/08/06 09:17:47;;;;;;;2.35;0.70;;;;;;;25.57;39.28;102707.81;5093804;28;20512;-80
2022/08/06 09:20:35;;;;;;;2.97;0.82;;;;;;;25.73;39.09;102704.34;5095223;28;20696;-83
2022/08/06 09:23:03;;;;;;;2.63;0.88;;;;;;;25.84;38.82;102709.56;5097099;28;20032;-83
2022/08/06 09:25:46;;;;;;;5.03;0.93;;;;;;;25.90;38.14;102708.03;5086558;28;20055;-80
2022/08/06 09:28:38;;;;;;;2.10;0.90;;;;;;;25.92;37.88;102698.59;5076948;28;20048;-81
2022/08/06 09:31:06;;;;;;;3.47;0.82;;;;;;;25.92;38.00;102698.59;5094023;28;20050;-84
2022/08/06 09:33:59;;;;;;;3.47;1.10;;;;;;;25.94;38.00;102702.03;5096038;28;20051;-79
2022/08/06 09:36:48;;;;;;;3.15;0.73;;;;;;;25.98;37.94;102706.19;5093410;28;20049;-83
2022/08/06 09:39:34;;;;;;;4.47;1.10;;;;;;;26.00;37.63;102697.75;5077044;28;20040;-78
2022/08/06 09:42:59;;;;;;;2.45;0.75;;;;;;;26.02;37.55;102709.50;5094070;28;20036;-79
2022/08/06 09:45:27;;;;;;;5.23;0.70;;;;;;;25.97;37.74;102704.47;5092942;28;20044;-78
2022/08/06 09:48:09;;;;;;;3.65;0.85;;;;;;;26.00;37.63;102710.66;5093933;28;20423;-77
2022/08/06 09:50:46;;;;;;;2.88;0.70;;;;;;;26.06;37.30;102708.13;5093691;28;20343;-78
2022/08/06 09:53:14;;;;;;;3.30;0.63;;;;;;;26.14;37.20;102712.81;5093684;28;20481;-78
2022/08/06 09:55:49;;;;;;;1.45;0.65;;;;;;;26.22;36.78;102710.97;5093797;28;20091;-77
2022/08/06 09:58:35;;;;;;;3.25;1.00;;;;;;;26.21;36.00;102713.88;5093706;28;20036;-75
2022/08/06 10:01:24;;;;;;;3.00;0.57;;;;;;;26.18;35.95;102714.22;5093797;28;20063;-76
2022/08/06 10:03:53;;;;;;;3.30;0.60;;;;;;;26.15;35.81;102711.78;5093495;28;20458;-76
2022/08/06 10:06:33;;;;;;;0.90;0.40;;;;;;;26.11;35.96;102716.75;5077148;28;20055;-77
2022/08/06 10:09:12;;;;;;;1.58;0.60;;;;;;;26.17;35.62;102705.09;5093579;28;20048;-77
2022/08/06 10:11:59;;;;;;;1.55;0.50;;;;;;;26.28;35.62;102707.53;5092064;28;20041;-77
2022/08/06 10:14:31;;;;;;;1.88;0.60;;;;;;;26.40;35.29;102704.50;5093435;28;20078;-78
2022/08/06 10:17:06;;;;;;;2.97;0.70;;;;;;;26.53;35.29;102702.97;5093513;28;20603;-77
2022/08/06 10:19:35;;;;;;;2.97;0.77;;;;;;;26.65;35.12;102702.66;5092164;28;20558;-77
2022/08/06 10:22:04;;;;;;;1.85;0.63;;;;;;;26.72;34.91;102698.19;5092984;28;20121;-78
2022/08/06 10:24:35;;;;;;;3.47;0.70;;;;;;;26.82;35.13;102704.44;5093424;28;20044;-77
2022/08/06 10:27:21;;;;;;;1.95;0.50;;;;;;;26.93;35.13;102706.84;5093445;28;20115;-76
2022/08/06 10:29:53;;;;;;;1.75;0.63;;;;;;;26.96;34.75;102703.75;5093245;28;20046;-77
2022/08/06 10:32:43;;;;;;;1.85;0.40;;;;;;;26.95;34.33;102693.75;5093062;28;20068;-77
2022/08/06 10:35:11;;;;;;;1.40;0.50;;;;;;;26.90;34.19;102701.69;5093025;28;20425;-76
2022/08/06 10:37:43;;;;;;;1.60;0.40;;;;;;;26.76;33.75;102694.09;5091875;28;20048;-76
2022/08/06 10:40:18;;;;;;;1.08;0.38;;;;;;;26.64;33.63;102692.66;5091590;28;20540;-77
2022/08/06 10:43:03;;;;;;;1.48;0.60;;;;;;;26.61;33.20;102682.84;5091402;28;20067;-77
2022/08/06 10:45:33;;;;;;;2.28;0.50;;;;;;;26.68;33.32;102683.03;5092884;28;20040;-77
2022/08/06 10:48:16;;;;;;;1.60;0.40;;;;;;;26.89;33.66;102684.28;5092988;28;20047;-76
2022/08/06 10:51:04;;;;;;;3.90;0.60;;;;;;;27.10;33.34;102678.28;5091792;28;20046;-77
2022/08/06 10:53:33;;;;;;;1.75;0.40;;;;;;;27.21;33.60;102675.16;5091356;28;20040;-77
2022/08/06 10:56:20;;;;;;;1.15;0.40;;;;;;;27.33;33.31;102674.78;5092057;28;20032;-78
2022/08/06 10:58:55;;;;;;;1.77;0.70;;;;;;;27.43;33.13;102672.69;5092501;28;20468;-76
2022/08/06 11:02:01;;;;;;;2.50;0.80;;;;;;;27.46;33.11;102672.34;5093135;28;20123;-77
2022/08/06 11:04:30;;;;;;;3.78;0.50;;;;;;;27.47;33.04;102674.94;5092393;28;20489;-76
2022/08/06 11:07:25;;;;;;;2.15;0.52;;;;;;;27.38;32.54;102686.16;5092571;28;20460;-77
2022/08/06 11:10:48;;;;;;;1.65;0.77;;;;;;;27.25;32.65;102678.41;5091008;28;20044;-76
2022/08/06 11:13:33;;;;;;;2.25;1.13;;;;;;;27.20;33.12;102675.31;5092457;28;20048;-76
2022/08/06 11:16:25;;;;;;;2.00;0.50;;;;;;;27.22;32.33;102671.34;5092002;28;20074;-78
2022/08/06 11:19:02;;;;;;;1.23;0.30;;;;;;;27.26;32.09;102669.09;5092413;28;20040;-77
2022/08/06 11:21:46;;;;;;;2.38;0.43;;;;;;;27.35;32.23;102662.53;5092245;28;20545;-76
2022/08/06 11:24:33;;;;;;;;;;;;;;;27.57;32.50;102668.38;5092584;28;20039;-76
2022/08/06 11:27:04;;;;;;;1.63;0.50;;;;;;;27.75;32.32;102658.88;5092269;28;19924;-77
2022/08/06 11:30:11;;;;;;;2.67;0.50;;;;;;;27.83;31.94;102658.84;5090730;28;20659;-76
2022/08/06 11:32:44;;;;;;;2.22;0.50;;;;;;;27.90;31.46;102664.50;5090442;28;20438;-76
2022/08/06 11:35:32;;;;;;;3.05;0.60;;;;;;;27.88;31.52;102660.19;5091782;28;20501;-75
2022/08/06 11:38:12;;;;;;;2.58;0.65;;;;;;;27.79;31.32;102665.75;5090744;28;20410;-77
2022/08/06 11:40:57;;;;;;;3.88;0.60;;;;;;;27.61;31.39;102656.84;5092274;28;20537;-76
2022/08/06 11:43:46;;;;;;;1.90;0.60;;;;;;;27.46;31.54;102661.31;5091723;28;20498;-76
2022/08/06 11:46:36;;;;;;;0.95;0.43;;;;;;;27.35;31.67;102657.03;5091641;28;20089;-76
2022/08/06 11:49:18;;;;;;;1.73;0.50;;;;;;;27.33;31.68;102664.63;5091688;28;20119;-76
2022/08/06 11:51:57;;;;;;;1.05;0.60;;;;;;;27.38;31.72;102647.53;5091479;28;20032;-77
2022/08/06 11:54:48;;;;;;;2.70;0.73;;;;;;;27.48;31.51;102656.47;5092002;28;20051;-77
2022/08/06 11:57:17;;;;;;;1.48;0.60;;;;;;;27.62;31.68;102636.47;5091702;28;20119;-77
2022/08/06 12:00:08;;;;;;;1.75;0.55;;;;;;;27.70;31.27;102635.59;5090188;28;20060;-76
2022/08/06 12:02:41;;;;;;;2.87;0.50;;;;;;;27.71;31.33;102643.69;5090815;28;20569;-77
2022/08/06 12:05:13;;;;;;;2.25;0.40;;;;;;;27.73;31.20;102646.28;5089958;28;20317;-77
2022/08/06 12:07:44;;;;;;;1.80;0.60;;;;;;;27.79;31.00;102638.13;5091958;28;20036;-77
2022/08/06 12:10:17;;;;;;;;;;;;;;;27.94;31.20;102640.16;5091840;28;20044;-78
2022/08/06 12:12:59;;;;;;;0.85;0.40;;;;;;;28.21;31.11;102634.13;5090315;28;20447;-77
2022/08/06 12:15:41;;;;;;;2.63;0.77;;;;;;;28.45;31.05;102633.16;5089433;28;20048;-76
2022/08/06 12:18:25;;;;;;;1.50;0.40;;;;;;;28.57;30.40;102628.06;5090203;28;20320;-77
2022/08/06 12:20:57;;;;;;;1.35;0.43;;;;;;;28.66;30.19;102630.56;5091524;28;20072;-76
2022/08/06 12:23:29;;;;;;;1.63;0.57;;;;;;;28.59;30.03;102626.84;5089792;28;20044;-76
2022/08/06 12:26:17;;;;;;;2.85;0.50;;;;;;;28.48;30.10;102625.38;5091040;28;20036;-77